^^
Meteo Knjazevac Station Historical Data
Daily Summary for January 17, 2022 Units:  Metric    English   Both
Daily Weekly Monthly Yearly Custom
  High: Low: Average:
Temperature: 8.2 °C -2.3 °C 3 °C
Dew Point: 2.7 °C -4.4 °C -0.9 °C
Humidity: 94% 60% 77%
Wind Speed: 16.1km/h 0km/h 7.7km/h
Wind Gust: 33.8km/h - -
Wind- - SW
Pressure: 1027 hPa 1019.9 hPa -
Precipitation: 1.02 mm    
Historical Graphs
 
 
Tabular Data for January 17, 2022
Time Temperature Dew Point Pressure Wind Wind Speed Wind Gust Humidity Rainfall Rate (Hourly) solar Conditions
00:00 -2.1 °C -4.1 °C 1023.6 hPa NNW 1.6 km/h 3.2 km/h 86% 0 mm 0 W/m2
00:10 -2.1 °C -4.1 °C 1023.6 hPa North 4.8 km/h 9.7 km/h 86% 0 mm 0 W/m2
00:20 -2.1 °C -4.1 °C 1023.6 hPa NNW 3.2 km/h 6.4 km/h 86% 0 mm 0 W/m2
00:30 -2.2 °C -4.2 °C 1023.6 hPa NNW 1.6 km/h 6.4 km/h 86% 0 mm 0 W/m2
00:40 -2.3 °C -4.3 °C 1023.6 hPa Calm   4.8 km/h 86% 0 mm 0 W/m2
00:50 -2.3 °C -4.3 °C 1023.6 hPa NW 1.6 km/h 6.4 km/h 86% 0 mm 0 W/m2
01:00 -2.2 °C -4.2 °C 1023.6 hPa NW 1.6 km/h 6.4 km/h 86% 0 mm 0 W/m2
01:10 -2.1 °C -4.3 °C 1023.9 hPa WNW 3.2 km/h 6.4 km/h 85% 0 mm 0 W/m2
01:20 -2 °C -4.2 °C 1023.9 hPa West 1.6 km/h 6.4 km/h 85% 0 mm 0 W/m2
01:30 -2 °C -4.2 °C 1023.9 hPa Calm   4.8 km/h 85% 0 mm 0 W/m2
01:40 -1.8 °C -4 °C 1023.9 hPa SSE 1.6 km/h 9.7 km/h 85% 0 mm 0 W/m2
01:50 -1.6 °C -3.8 °C 1023.9 hPa ENE 4.8 km/h 8 km/h 85% 0 mm 0 W/m2
02:00 -1.3 °C -3.7 °C 1023.9 hPa ENE 1.6 km/h 12.9 km/h 84% 0 mm 0 W/m2
02:10 -1.2 °C -3.7 °C 1023.9 hPa SE 3.2 km/h 9.7 km/h 83% 0 mm 0 W/m2
02:20 -1.1 °C -3.6 °C 1023.9 hPa SSE 1.6 km/h 8 km/h 83% 0 mm 0 W/m2
02:30 -1.3 °C -3.8 °C 1023.9 hPa NW 1.6 km/h 4.8 km/h 83% 0 mm 0 W/m2
02:40 -1.3 °C -3.8 °C 1023.9 hPa SSW 1.6 km/h 8 km/h 83% 0 mm 0 W/m2
02:50 -1.3 °C -3.8 °C 1024.3 hPa West 1.6 km/h 6.4 km/h 83% 0 mm 0 W/m2
03:00 -1.4 °C -3.9 °C 1024.3 hPa SW 1.6 km/h 8 km/h 83% 0 mm 0 W/m2
03:10 -1.4 °C -3.9 °C 1024.3 hPa NW 1.6 km/h 4.8 km/h 83% 0 mm 0 W/m2
03:20 -1.7 °C -4.2 °C 1024.3 hPa West 4.8 km/h 9.7 km/h 83% 0 mm 0 W/m2
03:30 -1.5 °C -3.7 °C 1023.9 hPa WSW 3.2 km/h 8 km/h 85% 0 mm 0 W/m2
03:40 -1.5 °C -3.8 °C 1024.3 hPa West 3.2 km/h 6.4 km/h 84% 0 mm 0 W/m2
03:50 -1.7 °C -3.9 °C 1024.3 hPa NNW 4.8 km/h 8 km/h 85% 0 mm 0 W/m2
04:00 -1.8 °C -4.2 °C 1024.3 hPa Calm   8 km/h 84% 0 mm 0 W/m2
04:10 -2.1 °C -4.4 °C 1024.6 hPa NNW 3.2 km/h 4.8 km/h 84% 0 mm 0 W/m2
04:20 -2 °C -4.2 °C 1024.3 hPa NNW 1.6 km/h 8 km/h 85% 0 mm 0 W/m2
04:30 -1.8 °C -3.8 °C 1024.3 hPa NW 4.8 km/h 12.9 km/h 86% 0 mm 0 W/m2
04:40 -1.7 °C -4.1 °C 1024.3 hPa NE 9.7 km/h 16.1 km/h 84% 0 mm 0 W/m2
04:50 -1.6 °C -4.1 °C 1024.3 hPa ENE 8 km/h 14.5 km/h 83% 0 mm 0 W/m2
05:00 -1.5 °C -4 °C 1024.3 hPa NNE 1.6 km/h 11.3 km/h 83% 0 mm 0 W/m2
05:10 -1.4 °C -3.9 °C 1024.6 hPa NNE 4.8 km/h 8 km/h 83% 0 mm 0 W/m2
05:20 -1 °C -3.5 °C 1024.6 hPa NE 3.2 km/h 9.7 km/h 83% 0 mm 0 W/m2
05:30 -0.8 °C -3.7 °C 1024.6 hPa NE 8 km/h 11.3 km/h 81% 0 mm 0 W/m2
05:40 -0.5 °C -3.1 °C 1024.9 hPa SE 3.2 km/h 14.5 km/h 83% 0 mm 0 W/m2
05:50 -0.3 °C -2.8 °C 1024.9 hPa SW 3.2 km/h 11.3 km/h 83% 0 mm 0 W/m2
06:00 -0.1 °C -2.9 °C 1024.9 hPa SSW 1.6 km/h 8 km/h 81% 0 mm 0 W/m2
06:10 0 °C -2.9 °C 1024.9 hPa SSW 8 km/h 12.9 km/h 81% 0 mm 0 W/m2
06:20 0 °C -3.1 °C 1024.9 hPa SSE 3.2 km/h 9.7 km/h 80% 0 mm 0 W/m2
06:30 0 °C -3.1 °C 1024.9 hPa SSW 3.2 km/h 16.1 km/h 80% 0 mm 0 W/m2
06:40 0.1 °C -2.9 °C 1024.9 hPa SW 8 km/h 14.5 km/h 80% 0 mm 0 W/m2
06:50 0.2 °C -2.7 °C 1024.9 hPa SW 9.7 km/h 16.1 km/h 81% 0 mm 0 W/m2
07:00 0.1 °C -2.8 °C 1024.9 hPa West 9.7 km/h 14.5 km/h 81% 0 mm 3 W/m2
07:10 0.1 °C -2.8 °C 1024.9 hPa WSW 8 km/h 14.5 km/h 81% 0 mm 8 W/m2
07:20 0.1 °C -2.4 °C 1025.3 hPa WSW 9.7 km/h 19.3 km/h 83% 0 mm 12 W/m2
07:30 0.2 °C -2.3 °C 1025.3 hPa WSW 9.7 km/h 16.1 km/h 83% 0 mm 22 W/m2
07:40 0.4 °C -2.2 °C 1025.3 hPa SW 3.2 km/h 16.1 km/h 83% 0 mm 28 W/m2
07:50 0.3 °C -2.2 °C 1025.6 hPa WSW 8 km/h 19.3 km/h 83% 0 mm 40 W/m2
08:00 0.5 °C -2.1 °C 1025.6 hPa WSW 3.2 km/h 12.9 km/h 83% 0 mm 53 W/m2
08:10 0.6 °C -1.9 °C 1025.6 hPa WNW 3.2 km/h 9.7 km/h 83% 0 mm 52 W/m2
08:20 0.7 °C -1.8 °C 1025.6 hPa NNW 1.6 km/h 6.4 km/h 83% 0 mm 33 W/m2
08:30 0.7 °C -1.8 °C 1025.6 hPa WSW 1.6 km/h 4.8 km/h 83% 0 mm 31 W/m2
08:40 0.8 °C -1.6 °C 1025.3 hPa WSW 3.2 km/h 8 km/h 84% 0 mm 52 W/m2
08:50 0.9 °C -1.5 °C 1025.3 hPa WSW 4.8 km/h 12.9 km/h 84% 0 mm 65 W/m2
09:00 1 °C -1.6 °C 1026.3 hPa SW 8 km/h 11.3 km/h 83% 0 mm 72 W/m2
09:10 1.1 °C -1.4 °C 1026.3 hPa WSW 4.8 km/h 11.3 km/h 83% 0 mm 76 W/m2
09:20 1.2 °C -1.4 °C 1025.3 hPa WSW 4.8 km/h 9.7 km/h 83% 0 mm 71 W/m2
09:30 1.3 °C -1.3 °C 1025.3 hPa WSW 8 km/h 16.1 km/h 83% 0 mm 105 W/m2
09:40 1.6 °C -1 °C 1027 hPa WSW 9.7 km/h 16.1 km/h 83% 0 mm 116 W/m2
09:50 1.8 °C -1.1 °C 1026.3 hPa SW 9.7 km/h 16.1 km/h 81% 0 mm 74 W/m2
10:00 2 °C -0.9 °C 1025.6 hPa SW 4.8 km/h 12.9 km/h 81% 0 mm 303 W/m2
10:10 2.8 °C -0.1 °C 1025.3 hPa SW 8 km/h 12.9 km/h 81% 0 mm 219 W/m2
10:20 3.5 °C 0.2 °C 1024.9 hPa SW 8 km/h 11.3 km/h 79% 0 mm 328 W/m2
10:30 4.2 °C 0.7 °C 1024.9 hPa SW 8 km/h 14.5 km/h 78% 0 mm 338 W/m2
10:40 4.6 °C 0.9 °C 1024.9 hPa SSW 3.2 km/h 12.9 km/h 77% 0 mm 347 W/m2
10:50 5.2 °C 1.1 °C 1024.9 hPa SW 3.2 km/h 9.7 km/h 75% 0 mm 355 W/m2
11:00 5.8 °C 1.5 °C 1024.9 hPa SW 8 km/h 11.3 km/h 74% 0 mm 361 W/m2
11:10 6.2 °C 1.5 °C 1024.9 hPa SW 9.7 km/h 20.9 km/h 72% 0 mm 366 W/m2
11:20 6.4 °C 1.3 °C 1024.6 hPa SW 11.3 km/h 20.9 km/h 70% 0 mm 369 W/m2
11:30 6.4 °C 1.3 °C 1024.6 hPa SW 11.3 km/h 20.9 km/h 70% 0 mm 371 W/m2
11:40 6.5 °C 1.2 °C 1024.6 hPa SW 12.9 km/h 24.1 km/h 69% 0 mm 371 W/m2
11:50 6.8 °C 1.5 °C 1024.3 hPa SW 11.3 km/h 19.3 km/h 69% 0 mm 370 W/m2
12:00 6.9 °C 1.4 °C 1023.9 hPa SW 16.1 km/h 22.5 km/h 68% 0 mm 368 W/m2
12:10 7.3 °C 1.6 °C 1023.9 hPa SW 11.3 km/h 17.7 km/h 67% 0 mm 312 W/m2
12:20 7.4 °C 1.7 °C 1023.9 hPa SW 14.5 km/h 27.4 km/h 67% 0 mm 359 W/m2
12:30 7.5 °C 1.3 °C 1023.9 hPa SW 12.9 km/h 20.9 km/h 65% 0 mm 352 W/m2
12:40 7.4 °C 1.2 °C 1023.2 hPa SW 14.5 km/h 25.7 km/h 65% 0 mm 344 W/m2
12:50 7.6 °C 1.4 °C 1023.6 hPa WSW 16.1 km/h 24.1 km/h 65% 0 mm 334 W/m2
13:00 7.5 °C 1.1 °C 1023.2 hPa WSW 14.5 km/h 25.7 km/h 64% 0 mm 324 W/m2
13:10 7.8 °C 1.4 °C 1023.2 hPa SW 8 km/h 24.1 km/h 64% 0 mm 312 W/m2
13:20 8 °C 1.2 °C 1023.2 hPa WSW 9.7 km/h 20.9 km/h 62% 0 mm 298 W/m2
13:30 8 °C 1.2 °C 1023.2 hPa WSW 11.3 km/h 24.1 km/h 62% 0 mm 284 W/m2
13:40 8.1 °C 0.8 °C 1022.9 hPa WSW 12.9 km/h 24.1 km/h 60% 0 mm 268 W/m2
13:50 8.2 °C 0.9 °C 1022.6 hPa WSW 12.9 km/h 22.5 km/h 60% 0 mm 252 W/m2
14:00 8 °C 1.2 °C 1022.2 hPa WSW 11.3 km/h 16.1 km/h 62% 0 mm 234 W/m2
14:10 8 °C 1.2 °C 1021.9 hPa SW 9.7 km/h 17.7 km/h 62% 0 mm 216 W/m2
14:20 7.8 °C 0.9 °C 1021.9 hPa SW 12.9 km/h 20.9 km/h 62% 0 mm 197 W/m2
14:30 7.7 °C 0.9 °C 1021.6 hPa SW 12.9 km/h 20.9 km/h 62% 0 mm 177 W/m2
14:40 7.5 °C 0.9 °C 1021.2 hPa SW 14.5 km/h 24.1 km/h 63% 0 mm 157 W/m2
14:50 7.3 °C 0.7 °C 1021.6 hPa SW 14.5 km/h 29 km/h 63% 0 mm 137 W/m2
15:00 7.2 °C 0.6 °C 1021.2 hPa SW 14.5 km/h 20.9 km/h 63% 0 mm 116 W/m2
15:10 7.1 °C 0.5 °C 1021.2 hPa SW 12.9 km/h 22.5 km/h 63% 0 mm 70 W/m2
15:20 6.8 °C 0.4 °C 1021.2 hPa SW 9.7 km/h 22.5 km/h 64% 0 mm 49 W/m2
15:30 6.6 °C 0.3 °C 1021.2 hPa SW 14.5 km/h 22.5 km/h 64% 0 mm 33 W/m2
15:40 6.3 °C 0 °C 1021.2 hPa SW 12.9 km/h 20.9 km/h 64% 0 mm 27 W/m2
15:50 6.1 °C -0.2 °C 1021.2 hPa SW 12.9 km/h 22.5 km/h 64% 0 mm 22 W/m2
16:00 6 °C -0.1 °C 1020.9 hPa SW 12.9 km/h 24.1 km/h 65% 0 mm 7 W/m2
16:10 5.9 °C -0.2 °C 1020.5 hPa SW 9.7 km/h 17.7 km/h 65% 0 mm 16 W/m2
16:20 5.7 °C -0.4 °C 1020.2 hPa SW 11.3 km/h 22.5 km/h 65% 0 mm 6 W/m2
16:30 5.6 °C -0.4 °C 1020.2 hPa SW 11.3 km/h 27.4 km/h 65% 0 mm 0 W/m2
16:40 5.6 °C -0.4 °C 1020.2 hPa SW 12.9 km/h 24.1 km/h 65% 0 mm 0 W/m2
16:50 5.5 °C -0.6 °C 1020.5 hPa WSW 8 km/h 24.1 km/h 65% 0 mm 0 W/m2
17:00 5.5 °C -0.6 °C 1020.5 hPa SW 11.3 km/h 20.9 km/h 65% 0 mm 0 W/m2
17:10 5.4 °C -0.2 °C 1020.2 hPa SW 8 km/h 16.1 km/h 67% 0 mm 0 W/m2
17:20 5.3 °C -0.3 °C 1020.2 hPa WSW 9.7 km/h 17.7 km/h 67% 0 mm 0 W/m2
17:30 5.2 °C -0.4 °C 1020.2 hPa SW 9.7 km/h 24.1 km/h 67% 0 mm 0 W/m2
17:40 5.1 °C -0.6 °C 1019.9 hPa SW 8 km/h 14.5 km/h 67% 0 mm 0 W/m2
17:50 5.1 °C -0.6 °C 1019.9 hPa SW 4.8 km/h 12.9 km/h 67% 0 mm 0 W/m2
18:00 5.1 °C -0.6 °C 1020.2 hPa WSW 8 km/h 20.9 km/h 67% 0 mm 0 W/m2
18:10 5.2 °C -0.4 °C 1019.9 hPa WSW 12.9 km/h 20.9 km/h 67% 0 mm 0 W/m2
18:20 5.2 °C -0.8 °C 1019.9 hPa SW 11.3 km/h 24.1 km/h 65% 0 mm 0 W/m2
18:30 5.2 °C -0.4 °C 1020.2 hPa SW 4.8 km/h 14.5 km/h 67% 0 mm 0 W/m2
18:40 5.1 °C -0.6 °C 1020.2 hPa WSW 8 km/h 12.9 km/h 67% 0 mm 0 W/m2
18:50 4.9 °C -0.7 °C 1020.2 hPa West 3.2 km/h 9.7 km/h 67% 0 mm 0 W/m2
19:00 4.8 °C -0.8 °C 1020.5 hPa West 4.8 km/h 12.9 km/h 67% 0 mm 0 W/m2
19:10 4.8 °C -0.8 °C 1020.5 hPa SW 8 km/h 17.7 km/h 67% 0 mm 0 W/m2
19:20 4.9 °C -0.7 °C 1020.5 hPa WSW 8 km/h 14.5 km/h 67% 0 mm 0 W/m2
19:30 5.2 °C 0 °C 1020.5 hPa WSW 12.9 km/h 33.8 km/h 69% 0 mm 0 W/m2
19:40 5.7 °C 0.4 °C 1020.2 hPa WSW 16.1 km/h 24.1 km/h 69% 0 mm 0 W/m2
19:50 5.8 °C 0.6 °C 1020.2 hPa SW 14.5 km/h 27.4 km/h 69% 0 mm 0 W/m2
20:00 5.8 °C 0.6 °C 1020.2 hPa SW 14.5 km/h 24.1 km/h 69% 0 mm 0 W/m2
20:10 6 °C 0.7 °C 1020.2 hPa SW 8 km/h 25.7 km/h 69% 0 mm 0 W/m2
20:20 6 °C 0.6 °C 1020.2 hPa WSW 12.9 km/h 22.5 km/h 68% 0 mm 0 W/m2
20:30 6.2 °C 0.7 °C 1020.5 hPa West 12.9 km/h 25.7 km/h 68% 0 mm 0 W/m2
20:40 6.1 °C 0.8 °C 1020.9 hPa WSW 12.9 km/h 24.1 km/h 69% 0 mm 0 W/m2
20:50 5.9 °C 1.6 °C 1020.9 hPa West 14.5 km/h 27.4 km/h 74% 0 mm 0 W/m2
21:00 5.6 °C 1.7 °C 1021.2 hPa West 12.9 km/h 20.9 km/h 76% 0 mm 0 W/m2
21:10 5.4 °C 2.1 °C 1021.6 hPa WSW 14.5 km/h 24.1 km/h 79% 0 mm 0 W/m2
21:20 5.1 °C 2.3 °C 1021.6 hPa WSW 11.3 km/h 22.5 km/h 82% 0 mm 0 W/m2
21:30 4.8 °C 2.3 °C 1021.6 hPa WSW 12.9 km/h 19.3 km/h 84% 0 mm 0 W/m2
21:40 4.5 °C 2.3 °C 1021.6 hPa WSW 9.7 km/h 22.5 km/h 86% 0 mm 0 W/m2
21:50 4.3 °C 2.5 °C 1021.6 hPa WSW 8 km/h 19.3 km/h 88% 0 mm 0 W/m2
22:10 4 °C 2.5 °C 1021.6 hPa WSW 9.7 km/h 14.5 km/h 90% 0 mm 0 W/m2
22:20 3.9 °C 2.6 °C 1021.6 hPa WSW 9.7 km/h 12.9 km/h 91% 0 mm 0 W/m2
22:30 3.7 °C 2.3 °C 1021.6 hPa WSW 9.7 km/h 16.1 km/h 91% 0.76 mm 0 W/m2
22:40 3.5 °C 2.5 °C 1021.6 hPa SW 9.7 km/h 16.1 km/h 93% 0 mm 0 W/m2
22:50 3.4 °C 2.4 °C 1021.9 hPa WSW 8 km/h 12.9 km/h 93% 0 mm 0 W/m2
23:00 3.3 °C 2.3 °C 1021.6 hPa SW 4.8 km/h 11.3 km/h 93% 0 mm 0 W/m2
23:10 3.4 °C 2.4 °C 1021.9 hPa SW 4.8 km/h 12.9 km/h 93% 0 mm 0 W/m2
23:20 3.4 °C 2.6 °C 1021.9 hPa WSW 8 km/h 11.3 km/h 94% 0 mm 0 W/m2
23:30 3.5 °C 2.6 °C 1021.9 hPa WSW 4.8 km/h 9.7 km/h 94% 0 mm 0 W/m2
23:40 3.6 °C 2.7 °C 1021.9 hPa WSW 4.8 km/h 9.7 km/h 94% 0 mm 0 W/m2
23:50 3.6 °C 2.6 °C 1021.9 hPa WSW 3.2 km/h 11.3 km/h 93% 0 mm 0 W/m2
Knjazevac, Serbia
Compliments of Weather Underground - 2 mb